Rechercher aéroport 
image banner adimage banner ad
image banner ad

DAAS - Setif / 8 Mai 45

Situé à , Algeria

ICAO - DAAS, IATA - QSF

Données fournies par Airmate  

Information générale

Coordonnées: N36°10'43" E5°19'48"
Élévation : 3333 feet MSL.
 
Évalué:
Voir évaluations:
[VIEW]
Voir autres Aéroports à Sétif Province

Données opérationnelles

Accessible au public
Heure actuelle UTC:
Heure actuelle locale:
Météo
METAR: DAAS 230600Z VRB01KT 9999 FEW030 SCT100 15/06 Q1019
TAF: TAF DAAS 230500Z 2306/2406 34008KT 9999 SCT030 PROB30 TEMPO 2306/2312 FEW026TCU PROB40 TEMPO 2312/2321 23012KT FEW023CB
Voir NOTAMs / SUP AIP / TFR affectant cet aéroport [VIEW]
Fréquences de communication: [VIEW]

Pistes:

Identifiant RWYQFULongueur (ft)Largeur (ft)SurfaceLDA (ft)
0987°9514148
27267°9514148

Coordonnées de l'aéroport

Adresse: Algeria

Vue satellite de DAAS